Nearby METAR Reports

 

KMTN - Baltimore/Martin, Maryland, USA
Distance from station: SSE 8mi, 13km
Updated: Fri, 25-Jul-2014 1:55pm EDT
Clear
Clear
 Wind from W
Wind: W 8 mph , 13 km/h
Temperature: 81°F , 27°C
Dew Point: 52°F , 11°C
Humidity: 37%
Barometer: 30.03 inHg , 1016.9 hPa
Clouds: Clear
Visibility: 10 miles , 16 km
2014/07/25 17:55 KMTN 251755Z 27007KT 10SM SKC 27/11 A3003
KDMH - Baltimore/Dwntwn, Maryland, USA
Distance from station: SW 12mi, 19km
Updated: Fri, 25-Jul-2014 1:54pm EDT

 
Temperature: 79°F , 26°C
Dew Point: 50°F , 10°C
Humidity: 37%
Barometer: 30.02 inHg , 1016.6 hPa
2014/07/25 17:54 KDMH 251754Z AUTO 26/10 A3002 RMK AO1 SLP166 T02610100 10267 20194 58016
 
KBWI - Balto/Wash Intl, Maryland, USA
Distance from station: SSW 20mi, 33km
Updated: Fri, 25-Jul-2014 1:54pm EDT
Partly cloudy
Partly cloudy
 Wind from NNW
Wind: NNW 8 mph , 13 km/h
Temperature: 81°F , 27°C
Dew Point: 52°F , 11°C
Humidity: 37%
Barometer: 30.02 inHg , 1016.6 hPa
Clouds: Partly cloudy
Visibility: 10 miles , 16 km
Cloud details: Few Clouds 4000 ft
Partly cloudy 25000 ft
2014/07/25 17:54 KBWI 251754Z 33007KT 290V350 10SM FEW040 SCT250 27/11 A3002 RMK AO2 SLP164 T02670106 10272 20183 58015
KDMW - Carroll Cnty, Maryland, USA
Distance from station: WNW 30mi, 48km
Updated: Fri, 25-Jul-2014 2:00pm EDT
Clear
Clear
 Wind from NNW
Wind: NNW 6 mph , 9 km/h
Temperature: 77°F , 25°C
Dew Point: 59°F , 15°C
Humidity: 54%
Barometer: 30.04 inHg , 1017.3 hPa
Clouds: Clear
Visibility: 10 miles , 16 km
2014/07/25 18:00 KDMW 251800Z AUTO 33005KT 10SM CLR 25/15 A3004 RMK AO2
 
KNAK - Annapolis/Naval, Maryland, USA
Distance from station: S 30mi, 48km
Updated: Fri, 25-Jul-2014 1:54pm EDT
Clear
Clear
 Wind from NW
Wind: NW 9 mph , 15 km/h
Temperature: 79°F , 26°C
Dew Point: 54°F , 12°C
Humidity: 42%
Barometer: 30.02 inHg , 1016.6 hPa
Clouds: Clear
Visibility: 10 miles , 16 km
2014/07/25 17:54 KNAK 251754Z AUTO 31008KT 10SM CLR 26/12 A3002 RMK AO2 SLP168 T02560117 10256 20200 58013
KW29 - Stevensville, Maryland, USA
Distance from station: SSE 31mi, 50km
Updated: Fri, 25-Jul-2014 2:01pm EDT

 Wind from NNE
Wind: NNE 8 mph , 13 km/h
Temperature: 77°F , 25°C
Dew Point: 46°F , 8°C
Humidity: 34%
Barometer: 30.03 inHg , 1016.9 hPa
Visibility: 10 miles , 16 km
2014/07/25 18:01 KW29 251801Z AUTO 02007KT 10SM 25/08 A3003 RMK AO1
 
KCGS - College Park, Maryland, USA
Distance from station: SW 38mi, 61km
Updated: Fri, 25-Jul-2014 2:00pm EDT
Clear
Clear
 Wind from calm
Wind: Calm
Temperature: 81°F , 27°C
Dew Point: 52°F , 11°C
Humidity: 37%
Barometer: 30.03 inHg , 1016.9 hPa
Clouds: Clear
Visibility: 10 miles , 16 km
2014/07/25 18:00 KCGS 251800Z AUTO 00000KT 10SM CLR 27/11 A3003 RMK AO1
KGAI - Gaithersburg, Maryland, USA
Distance from station: WSW 40mi, 65km
Updated: Fri, 25-Jul-2014 1:55pm EDT
Clear
Clear
 Wind from WNW
Wind: WNW 6 mph , 9 km/h
Temperature: 75°F , 24°C
Dew Point: 55°F , 13°C
Humidity: 50%
Barometer: 30.07 inHg , 1018.3 hPa
Clouds: Clear
Visibility: 10 miles , 16 km
2014/07/25 17:55 KGAI 251755Z AUTO 30005KT 10SM CLR 24/13 A3007 RMK AO1 10240 20160 57017
 
KTHV - York, Pennsylvania, USA
Distance from station: NNW 40mi, 65km
Updated: Fri, 25-Jul-2014 1:53pm EDT
Clear
Clear
 Wind from varies
Wind: varies 6 mph , 9 km/h
Temperature: 77°F , 25°C
Dew Point: 50°F , 10°C
Humidity: 39%
Barometer: 30.03 inHg , 1016.9 hPa
Clouds: Clear
Visibility: 10 miles , 16 km
2014/07/25 17:53 KTHV 251753Z AUTO VRB05KT 10SM CLR 25/10 A3003 RMK AO2 SLP169 T02500100 10250 20161 58017
KFDK - Frederick, Maryland, USA
Distance from station: W 47mi, 75km
Updated: Fri, 25-Jul-2014 1:45pm EDT
Clear
Clear
 Wind from NW
Wind: NW 8 mph , 13 km/h
Temperature: 81°F , 27°C
Heat Index: 81°F , 27°C
Dew Point: 55°F , 13°C
Humidity: 42%
Barometer: 30.06 inHg , 1017.9 hPa
Clouds: Clear
Visibility: 10 miles , 16 km
2014/07/25 17:45 KFDK 251745Z 31007KT 10SM SKC 27/13 A3006
 
KESN - Easton/Newnam, Maryland, USA
Distance from station: SSE 48mi, 78km
Updated: Fri, 25-Jul-2014 1:45pm EDT
Clear
Clear
 Wind from N
Wind: N 9 mph , 15 km/h
Temperature: 81°F , 27°C
Dew Point: 52°F , 11°C
Humidity: 37%
Barometer: 30.07 inHg , 1018.3 hPa
Clouds: Clear
Visibility: 10 miles , 16 km
2014/07/25 17:45 KESN 251745Z 35008KT 10SM SKC 27/11 A3007
KDCA - Washington/Natl, Washington D.c., USA
Distance from station: SW 49mi, 79km
Updated: Fri, 25-Jul-2014 1:52pm EDT
Partly cloudy
Partly cloudy
 Wind from NW
Wind: NW 9 mph , 15 km/h, Gust: 21 mph , 33 km/h
Temperature: 82°F , 28°C
Dew Point: 52°F , 11°C
Humidity: 35%
Barometer: 30.04 inHg , 1017.3 hPa
Clouds: Partly cloudy
Visibility: 10 miles , 16 km
Cloud details: Few Clouds 6000 ft
Partly cloudy 25000 ft
2014/07/25 17:52 KDCA 251752Z 32008G18KT 300V360 10SM FEW060 SCT250 28/11 A3004 RMK AO2 SLP171 T02780111 10283 20211 58014 $
 
KLNS - Lancaster, Pennsylvania, USA
Distance from station: N 49mi, 79km
Updated: Fri, 25-Jul-2014 1:53pm EDT
Clear
Clear
 Wind from NNW
Wind: NNW 3 mph , 6 km/h
Temperature: 75°F , 24°C
Dew Point: 54°F , 12°C
Humidity: 47%
Barometer: 30.03 inHg , 1016.9 hPa
Clouds: Clear
Visibility: 10 miles , 16 km
2014/07/25 17:53 KLNS 251753Z 33003KT 10SM CLR 24/12 A3003 RMK AO2 SLP165 T02390122 10239 20161 58015
KILG - Wilmington, Delaware, USA
Distance from station: ENE 50mi, 81km
Updated: Fri, 25-Jul-2014 1:51pm EDT
Clear
Clear
 Wind from calm
Wind: Calm
Temperature: 81°F , 27°C
Dew Point: 54°F , 12°C
Humidity: 39%
Barometer: 30.03 inHg , 1016.9 hPa
Clouds: Clear
Visibility: 10 miles , 16 km
2014/07/25 17:51 KILG 251751Z 00000KT 10SM CLR 27/12 A3003 RMK AO2 SLP167 T02720122 10272 20189 56009